Terminal Aerodrome Forecast
Issued by NWS Central Illinois

Home | Current Version | Previous Version | Text Only | Print | Product List | Glossary On
Versions: 1 2 3 4 5 6 7 8 9 10 11 12 13 14 15 16 17 18 19 20
000
FTUS43 KILX 181120
TAFSPI
TAF
KSPI 181120Z 1812/1912 28007KT P6SM SCT250
     FM190200 20005KT P6SM VCTS SCT060CB BKN200
     FM190700 23005KT P6SM SCT060 BKN200=

USA.gov is the U.S. government's official web portal to all federal, state and local government web resources and services.